createdAt,value
2018-03-28T00:00:41.238Z,0.00
2018-03-28T00:01:41.174Z,0.00
2018-03-28T00:02:41.254Z,0.00
2018-03-28T00:03:41.114Z,0.00
2018-03-28T00:04:41.055Z,0.00
2018-03-28T00:05:41.029Z,0.00
2018-03-28T00:06:40.964Z,0.00
2018-03-28T00:07:40.953Z,0.00
2018-03-28T00:08:40.919Z,0.00
2018-03-28T00:09:40.854Z,0.00
2018-03-28T00:10:40.829Z,0.00
2018-03-28T00:11:40.788Z,0.00
2018-03-28T00:12:40.723Z,0.00
2018-03-28T00:13:40.699Z,0.00
2018-03-28T00:14:40.680Z,0.00
2018-03-28T00:15:40.611Z,0.00
2018-03-28T00:16:40.533Z,0.00
2018-03-28T00:17:40.517Z,0.00
2018-03-28T00:18:40.449Z,0.00
2018-03-28T00:19:40.481Z,0.00
2018-03-28T00:20:40.390Z,0.00
2018-03-28T00:21:40.367Z,0.00
2018-03-28T00:22:40.292Z,0.00
2018-03-28T00:23:40.270Z,0.00
2018-03-28T00:24:40.251Z,0.00
2018-03-28T00:25:40.176Z,0.00
2018-03-28T00:26:40.169Z,0.00
2018-03-28T00:27:40.186Z,0.00
2018-03-28T00:28:40.051Z,0.00
2018-03-28T00:29:40.005Z,0.00
2018-03-28T00:30:39.994Z,0.00
2018-03-28T00:31:39.906Z,0.00
2018-03-28T00:32:39.879Z,0.00
2018-03-28T00:33:39.813Z,0.00
2018-03-28T00:34:39.813Z,0.00
2018-03-28T00:35:40.808Z,0.00
2018-03-28T00:36:39.719Z,0.00
2018-03-28T00:37:39.636Z,0.00
2018-03-28T00:38:39.634Z,0.00
2018-03-28T00:39:39.565Z,0.00
2018-03-28T00:40:39.506Z,0.00
2018-03-28T00:41:39.514Z,0.00
2018-03-28T00:42:39.464Z,0.00
2018-03-28T00:43:39.381Z,0.00
2018-03-28T00:44:39.349Z,0.00
2018-03-28T00:45:39.336Z,0.00
2018-03-28T00:46:39.271Z,0.00
2018-03-28T00:47:39.204Z,0.00
2018-03-28T00:48:39.209Z,0.00
2018-03-28T00:49:39.164Z,0.00
2018-03-28T00:50:39.100Z,0.00
2018-03-28T00:51:39.061Z,0.00
2018-03-28T00:52:39.115Z,0.00
2018-03-28T00:53:38.993Z,0.00
2018-03-28T00:54:38.948Z,0.00
2018-03-28T00:55:38.889Z,0.00
2018-03-28T00:56:38.857Z,0.00
2018-03-28T00:57:38.817Z,0.00
2018-03-28T00:58:39.739Z,0.00
2018-03-28T00:59:38.766Z,0.00
2018-03-28T01:00:38.679Z,0.00
2018-03-28T01:01:38.634Z,0.00
2018-03-28T01:02:38.578Z,0.00
2018-03-28T01:03:41.305Z,0.00
2018-03-28T01:04:38.515Z,0.00
2018-03-28T01:05:38.520Z,0.00
2018-03-28T01:06:38.408Z,0.00
2018-03-28T01:07:38.391Z,0.00
2018-03-28T01:08:38.324Z,0.00
2018-03-28T01:09:38.299Z,0.00
2018-03-28T01:10:38.274Z,0.00
2018-03-28T01:11:38.202Z,0.00
2018-03-28T01:12:38.189Z,0.00
2018-03-28T01:13:38.131Z,0.00
2018-03-28T01:14:38.104Z,0.00
2018-03-28T01:15:38.064Z,0.00
2018-03-28T01:16:38.000Z,0.00
2018-03-28T01:17:37.966Z,0.00
2018-03-28T01:18:37.953Z,0.00
2018-03-28T01:19:37.862Z,0.00
2018-03-28T01:20:38.737Z,0.00
2018-03-28T01:21:37.789Z,0.00
2018-03-28T01:22:37.739Z,0.00
2018-03-28T01:23:37.738Z,0.00
2018-03-28T01:24:37.667Z,0.00
2018-03-28T01:25:37.610Z,0.00
2018-03-28T01:26:37.569Z,0.00
2018-03-28T01:27:37.525Z,0.00
2018-03-28T01:28:37.484Z,0.00
2018-03-28T01:29:37.426Z,0.00
2018-03-28T01:30:37.402Z,0.00
2018-03-28T01:31:37.351Z,0.00
2018-03-28T01:32:37.354Z,0.00
2018-03-28T01:33:37.254Z,0.00
2018-03-28T01:34:37.245Z,0.00
2018-03-28T01:35:37.253Z,0.00
2018-03-28T01:36:37.151Z,0.00
2018-03-28T01:37:37.107Z,0.00
2018-03-28T01:38:37.077Z,0.00
2018-03-28T01:39:37.078Z,0.00
2018-03-28T01:40:37.000Z,0.00
2018-03-28T01:41:36.959Z,0.00
2018-03-28T01:42:36.902Z,0.00
2018-03-28T01:43:36.847Z,0.00
2018-03-28T01:44:36.836Z,0.00
2018-03-28T01:45:37.757Z,0.00
2018-03-28T01:46:36.812Z,0.00
2018-03-28T01:47:36.687Z,0.00
2018-03-28T01:48:36.697Z,0.00
2018-03-28T01:49:36.622Z,0.00
2018-03-28T01:50:36.566Z,0.00
2018-03-28T01:51:36.507Z,0.00
2018-03-28T01:52:36.489Z,0.00
2018-03-28T01:53:37.257Z,0.00
2018-03-28T01:54:36.419Z,0.00
2018-03-28T01:55:36.370Z,0.00
2018-03-28T01:56:36.305Z,0.00
2018-03-28T01:57:36.515Z,0.00
2018-03-28T01:58:36.244Z,0.00
2018-03-28T01:59:36.173Z,0.00
2018-03-28T02:00:36.159Z,0.00
2018-03-28T02:01:36.092Z,0.00
2018-03-28T02:02:36.046Z,0.00
2018-03-28T02:03:36.003Z,0.00
2018-03-28T02:04:35.976Z,0.00
2018-03-28T02:05:35.967Z,0.00
2018-03-28T02:06:35.897Z,0.00
2018-03-28T02:07:35.836Z,0.00
2018-03-28T02:08:35.865Z,0.00
2018-03-28T02:09:35.783Z,0.00
2018-03-28T02:10:35.728Z,0.00
2018-03-28T02:11:35.671Z,0.00
2018-03-28T02:12:35.650Z,0.00
2018-03-28T02:13:35.607Z,0.00
2018-03-28T02:14:35.570Z,0.00
2018-03-28T02:15:35.515Z,0.00
2018-03-28T02:16:35.472Z,0.00
2018-03-28T02:17:35.451Z,0.00
2018-03-28T02:18:35.439Z,0.00
2018-03-28T02:19:35.360Z,0.00
2018-03-28T02:20:35.323Z,0.00
2018-03-28T02:21:35.300Z,0.00
2018-03-28T02:22:35.297Z,0.00
2018-03-28T02:23:35.212Z,0.00
2018-03-28T02:24:35.149Z,0.00
2018-03-28T02:25:35.088Z,0.00
2018-03-28T02:26:35.079Z,0.00
2018-03-28T02:27:35.756Z,0.00
2018-03-28T02:28:34.961Z,0.00
2018-03-28T02:29:34.919Z,0.00
2018-03-28T02:30:34.877Z,0.00
2018-03-28T02:31:34.827Z,0.00
2018-03-28T02:32:34.820Z,0.00
2018-03-28T02:33:34.782Z,0.00
2018-03-28T02:34:34.760Z,0.00
2018-03-28T02:35:34.679Z,0.00
2018-03-28T02:36:34.636Z,0.00
2018-03-28T02:37:34.601Z,0.00
2018-03-28T02:38:34.597Z,0.00
2018-03-28T02:39:34.515Z,0.00
2018-03-28T02:40:34.463Z,0.00
2018-03-28T02:41:34.446Z,0.00
2018-03-28T02:42:34.405Z,0.00
2018-03-28T02:43:34.363Z,0.00
2018-03-28T02:44:34.328Z,0.00
2018-03-28T02:45:34.268Z,0.00
2018-03-28T02:46:34.248Z,0.00
2018-03-28T02:47:34.182Z,0.00
2018-03-28T02:48:34.120Z,0.00
2018-03-28T02:49:34.110Z,0.00
2018-03-28T02:50:34.067Z,0.00
2018-03-28T02:51:34.058Z,0.00
2018-03-28T02:52:34.003Z,0.00
2018-03-28T02:53:35.847Z,0.00
2018-03-28T02:54:33.895Z,0.00
2018-03-28T02:55:33.855Z,0.00
2018-03-28T02:56:33.799Z,0.00
2018-03-28T02:57:33.766Z,0.00
2018-03-28T02:58:33.731Z,0.00
2018-03-28T02:59:33.700Z,0.00
2018-03-28T03:00:33.658Z,0.00
2018-03-28T03:01:33.632Z,0.00
2018-03-28T03:02:33.585Z,0.00
2018-03-28T03:03:33.507Z,0.00
2018-03-28T03:04:33.467Z,0.00
2018-03-28T03:05:33.448Z,0.00
2018-03-28T03:06:33.369Z,0.00
2018-03-28T03:07:33.407Z,0.00
2018-03-28T03:08:33.311Z,0.00
2018-03-28T03:09:33.290Z,0.00
2018-03-28T03:10:33.224Z,0.00
2018-03-28T03:11:33.184Z,0.00
2018-03-28T03:12:33.166Z,0.00
2018-03-28T03:13:33.128Z,0.00
2018-03-28T03:14:33.061Z,0.00
2018-03-28T03:15:33.022Z,0.00
2018-03-28T03:16:32.970Z,0.00
2018-03-28T03:17:32.919Z,0.00
2018-03-28T03:18:32.938Z,0.00
2018-03-28T03:19:32.926Z,0.00
2018-03-28T03:20:32.812Z,0.00
2018-03-28T03:21:32.770Z,0.00
2018-03-28T03:22:32.739Z,0.00
2018-03-28T03:23:32.684Z,0.00
2018-03-28T03:24:32.655Z,0.00
2018-03-28T03:25:32.621Z,0.00
2018-03-28T03:26:32.551Z,0.00
2018-03-28T03:27:32.495Z,0.00
2018-03-28T03:28:32.492Z,0.00
2018-03-28T03:29:33.260Z,0.00
2018-03-28T03:30:32.402Z,0.00
2018-03-28T03:31:32.348Z,0.00
2018-03-28T03:32:32.319Z,0.00
2018-03-28T03:33:32.267Z,0.00
2018-03-28T03:34:32.237Z,0.00
2018-03-28T03:35:32.183Z,0.00
2018-03-28T03:36:32.128Z,0.00
2018-03-28T03:37:32.132Z,0.00
2018-03-28T03:38:32.191Z,0.00
2018-03-28T03:39:32.016Z,0.00
2018-03-28T03:40:31.987Z,0.00
2018-03-28T03:41:31.969Z,0.00
2018-03-28T03:42:31.872Z,0.00
2018-03-28T03:43:31.870Z,0.00
2018-03-28T03:44:31.829Z,0.00
2018-03-28T03:45:31.799Z,0.00
2018-03-28T03:46:32.262Z,0.00
2018-03-28T03:47:31.701Z,0.00
2018-03-28T03:48:31.664Z,0.00
2018-03-28T03:49:31.614Z,0.00
2018-03-28T03:50:31.580Z,0.00
2018-03-28T03:51:31.507Z,0.00
2018-03-28T03:52:31.524Z,0.00
2018-03-28T03:53:31.427Z,0.00
2018-03-28T03:54:31.389Z,0.00
2018-03-28T03:55:31.338Z,0.00
2018-03-28T03:56:31.327Z,0.00
2018-03-28T03:57:31.301Z,0.00
2018-03-28T03:58:31.219Z,0.00
2018-03-28T03:59:31.189Z,0.00
2018-03-28T04:00:31.153Z,0.00
2018-03-28T04:01:31.092Z,0.00
2018-03-28T04:02:31.085Z,0.00
2018-03-28T04:03:31.006Z,0.00
2018-03-28T04:04:31.002Z,0.00
2018-03-28T04:05:30.941Z,0.00
2018-03-28T04:06:30.904Z,0.00
2018-03-28T04:07:30.845Z,0.00
2018-03-28T04:08:30.853Z,0.00
2018-03-28T04:09:30.782Z,0.00
2018-03-28T04:10:30.745Z,0.00
2018-03-28T04:11:30.701Z,0.00
2018-03-28T04:12:30.663Z,0.00
2018-03-28T04:13:30.614Z,0.00
2018-03-28T04:14:30.584Z,0.00
2018-03-28T04:15:30.601Z,0.00
2018-03-28T04:16:30.476Z,0.00
2018-03-28T04:17:30.460Z,0.00
2018-03-28T04:18:30.397Z,0.00
2018-03-28T04:19:30.380Z,0.00
2018-03-28T04:20:30.302Z,0.00
2018-03-28T04:21:30.270Z,0.00
2018-03-28T04:22:30.281Z,0.00
2018-03-28T04:23:30.217Z,0.00
2018-03-28T04:24:30.159Z,0.00
2018-03-28T04:25:30.100Z,0.00
2018-03-28T04:26:30.135Z,0.00
2018-03-28T04:27:30.024Z,0.00
2018-03-28T04:28:30.013Z,0.00
2018-03-28T04:29:29.944Z,4.00
2018-03-28T04:30:29.927Z,4.00
2018-03-28T04:31:29.878Z,0.00
2018-03-28T04:32:30.071Z,4.00
2018-03-28T04:33:29.783Z,4.00
2018-03-28T04:34:29.733Z,4.00
2018-03-28T04:35:29.682Z,4.00
2018-03-28T04:36:29.683Z,8.00
2018-03-28T04:37:29.604Z,8.00
2018-03-28T04:38:29.601Z,8.00
2018-03-28T04:39:29.512Z,12.00
2018-03-28T04:40:29.524Z,12.00
2018-03-28T04:41:29.491Z,16.00
2018-03-28T04:42:29.436Z,20.00
2018-03-28T04:43:29.396Z,24.00
2018-03-28T04:44:29.338Z,28.00
2018-03-28T04:45:29.306Z,32.00
2018-03-28T04:46:29.273Z,32.00
2018-03-28T04:47:29.222Z,40.00
2018-03-28T04:48:29.156Z,44.00
2018-03-28T04:49:29.135Z,52.00
2018-03-28T04:50:29.074Z,64.00
2018-03-28T04:51:29.014Z,68.00
2018-03-28T04:52:28.982Z,72.00
2018-03-28T04:53:28.978Z,84.00
2018-03-28T04:54:28.898Z,100.00
2018-03-28T04:55:28.896Z,116.00
2018-03-28T04:56:28.825Z,132.00
2018-03-28T04:57:28.763Z,144.00
2018-03-28T04:58:28.754Z,168.00
2018-03-28T04:59:28.705Z,180.00
2018-03-28T05:00:29.283Z,196.00
2018-03-28T05:01:28.710Z,220.00
2018-03-28T05:02:28.609Z,256.00
2018-03-28T05:03:28.537Z,304.00
2018-03-28T05:04:28.500Z,344.00
2018-03-28T05:05:28.512Z,384.00
2018-03-28T05:06:28.418Z,424.00
2018-03-28T05:07:28.377Z,460.00
2018-03-28T05:08:28.341Z,460.00
2018-03-28T05:09:28.300Z,472.00
2018-03-28T05:10:28.275Z,472.00
2018-03-28T05:11:28.209Z,484.00
2018-03-28T05:12:28.182Z,504.00
2018-03-28T05:13:28.153Z,524.00
2018-03-28T05:14:28.096Z,544.00
2018-03-28T05:15:28.050Z,528.00
2018-03-28T05:16:28.020Z,548.00
2018-03-28T05:17:27.964Z,600.00
2018-03-28T05:18:27.925Z,612.00
2018-03-28T05:19:27.887Z,620.00
2018-03-28T05:20:27.886Z,668.00
2018-03-28T05:21:28.286Z,696.00
2018-03-28T05:22:27.810Z,744.00
2018-03-28T05:23:27.695Z,824.00
2018-03-28T05:24:27.657Z,916.00
2018-03-28T05:25:27.628Z,972.00
2018-03-28T05:26:27.567Z,1088.00
2018-03-28T05:27:27.566Z,1232.00
2018-03-28T05:28:27.496Z,1352.00
2018-03-28T05:29:27.464Z,1492.00
2018-03-28T05:30:27.442Z,1616.00
2018-03-28T05:31:27.398Z,1632.00
2018-03-28T05:32:27.344Z,1664.00
2018-03-28T05:33:27.460Z,1788.00
2018-03-28T05:34:27.262Z,1960.00
2018-03-28T05:35:27.343Z,2140.00
2018-03-28T05:36:27.204Z,2392.00
2018-03-28T05:37:27.179Z,2652.00
2018-03-28T05:38:27.127Z,2896.00
2018-03-28T05:39:27.117Z,2852.00
2018-03-28T05:40:27.006Z,2888.00
2018-03-28T05:41:26.956Z,2948.00
2018-03-28T05:42:26.932Z,2928.00
2018-03-28T05:43:26.869Z,2872.00
2018-03-28T05:44:26.846Z,2912.00
2018-03-28T05:45:26.806Z,3116.00
2018-03-28T05:46:26.768Z,3368.00
2018-03-28T05:47:26.744Z,3436.00
2018-03-28T05:48:26.708Z,3656.00
2018-03-28T05:49:26.638Z,3928.00
2018-03-28T05:50:26.618Z,4168.00
2018-03-28T05:51:26.554Z,4460.00
2018-03-28T05:52:26.507Z,4520.00
2018-03-28T05:53:26.471Z,4512.00
2018-03-28T05:54:26.435Z,4508.00
2018-03-28T05:55:26.422Z,4752.00
2018-03-28T05:56:26.340Z,5228.00
2018-03-28T05:57:26.344Z,5624.00
2018-03-28T05:58:26.281Z,5720.00
2018-03-28T05:59:26.222Z,5408.00
2018-03-28T06:00:26.195Z,4824.00
2018-03-28T06:01:26.327Z,4288.00
2018-03-28T06:02:26.131Z,3788.00
2018-03-28T06:03:26.068Z,3028.00
2018-03-28T06:04:26.026Z,2452.00
2018-03-28T06:05:25.988Z,2124.00
2018-03-28T06:06:25.934Z,1968.00
2018-03-28T06:07:25.930Z,1836.00
2018-03-28T06:08:25.856Z,1716.00
2018-03-28T06:09:25.811Z,1680.00
2018-03-28T06:10:25.814Z,1712.00
2018-03-28T06:11:25.766Z,1848.00
2018-03-28T06:12:25.719Z,2004.00
2018-03-28T06:13:25.710Z,2184.00
2018-03-28T06:14:25.620Z,2540.00
2018-03-28T06:15:25.600Z,3100.00
2018-03-28T06:16:25.545Z,3476.00
2018-03-28T06:17:25.489Z,3536.00
2018-03-28T06:18:25.530Z,4200.00
2018-03-28T06:19:25.440Z,5028.00
2018-03-28T06:20:25.369Z,5860.00
2018-03-28T06:21:25.345Z,6548.00
2018-03-28T06:22:25.276Z,7392.00
2018-03-28T06:23:25.252Z,8444.00
2018-03-28T06:24:25.228Z,9424.00
2018-03-28T06:25:25.209Z,9980.00
2018-03-28T06:26:25.102Z,10040.00
2018-03-28T06:27:25.098Z,9724.00
2018-03-28T06:28:25.018Z,9152.00
2018-03-28T06:29:24.984Z,8880.00
2018-03-28T06:30:24.958Z,8880.00
2018-03-28T06:31:24.910Z,9040.00
2018-03-28T06:32:24.896Z,10228.00
2018-03-28T06:33:24.842Z,11308.00
2018-03-28T06:34:24.792Z,12008.00
2018-03-28T06:35:24.753Z,13000.00
2018-03-28T06:36:24.698Z,13764.00
2018-03-28T06:37:24.676Z,14188.00
2018-03-28T06:38:24.660Z,14376.00
2018-03-28T06:39:24.594Z,13636.00
2018-03-28T06:40:24.548Z,12392.00
2018-03-28T06:41:24.505Z,11816.00
2018-03-28T06:42:24.488Z,11288.00
2018-03-28T06:43:24.413Z,9836.00
2018-03-28T06:44:24.393Z,8612.00
2018-03-28T06:45:24.343Z,7912.00
2018-03-28T06:46:24.336Z,7252.00
2018-03-28T06:47:24.266Z,6736.00
2018-03-28T06:48:24.214Z,6620.00
2018-03-28T06:49:24.173Z,6728.00
2018-03-28T06:50:24.153Z,6792.00
2018-03-28T06:51:24.102Z,7024.00
2018-03-28T06:52:24.130Z,7228.00
2018-03-28T06:53:24.016Z,7180.00
2018-03-28T06:54:23.963Z,7088.00
2018-03-28T06:55:23.966Z,7120.00
2018-03-28T06:56:23.918Z,6976.00
2018-03-28T06:57:23.886Z,7112.00
2018-03-28T06:58:23.807Z,7520.00
2018-03-28T06:59:23.781Z,7808.00
2018-03-28T07:00:23.752Z,7840.00
2018-03-28T07:01:23.700Z,7712.00
2018-03-28T07:02:23.645Z,7816.00
2018-03-28T07:03:23.620Z,8568.00
2018-03-28T07:04:23.570Z,9664.00
2018-03-28T07:05:23.525Z,10456.00
2018-03-28T07:06:23.549Z,10784.00
2018-03-28T07:07:23.488Z,10788.00
2018-03-28T07:08:23.414Z,10520.00
2018-03-28T07:09:23.391Z,10384.00
2018-03-28T07:10:23.395Z,10728.00
2018-03-28T07:11:23.347Z,11572.00
2018-03-28T07:12:23.252Z,12016.00
2018-03-28T07:13:23.251Z,11484.00
2018-03-28T07:14:23.173Z,10532.00
2018-03-28T07:15:23.163Z,9808.00
2018-03-28T07:16:23.100Z,9428.00
2018-03-28T07:17:23.077Z,9200.00
2018-03-28T07:18:23.013Z,8892.00
2018-03-28T07:19:22.972Z,8524.00
2018-03-28T07:20:22.969Z,8624.00
2018-03-28T07:21:23.047Z,9232.00
2018-03-28T07:22:22.885Z,9796.00
2018-03-28T07:23:22.850Z,9972.00
2018-03-28T07:24:22.945Z,9920.00
2018-03-28T07:25:22.741Z,9940.00
2018-03-28T07:26:22.685Z,10200.00
2018-03-28T07:27:22.660Z,10660.00
2018-03-28T07:28:22.649Z,11188.00
2018-03-28T07:29:22.566Z,11452.00
2018-03-28T07:30:22.524Z,11480.00
2018-03-28T07:31:22.497Z,11544.00
2018-03-28T07:32:22.556Z,11644.00
2018-03-28T07:33:22.462Z,11464.00
2018-03-28T07:34:22.424Z,11092.00
2018-03-28T07:35:22.358Z,11044.00
2018-03-28T07:36:22.810Z,11064.00
2018-03-28T07:37:22.289Z,11328.00
2018-03-28T07:38:22.237Z,11972.00
2018-03-28T07:39:22.195Z,12940.00
2018-03-28T07:40:22.158Z,14172.00
2018-03-28T07:41:22.296Z,14928.00
2018-03-28T07:42:22.217Z,14556.00
2018-03-28T07:43:22.035Z,14032.00
2018-03-28T07:44:21.982Z,14044.00
2018-03-28T07:45:21.951Z,13540.00
2018-03-28T07:46:21.997Z,12792.00
2018-03-28T07:47:21.873Z,12540.00
2018-03-28T07:48:21.864Z,12540.00
2018-03-28T07:49:21.778Z,12300.00
2018-03-28T07:50:21.767Z,12488.00
2018-03-28T07:51:21.719Z,12356.00
2018-03-28T07:52:21.733Z,12152.00
2018-03-28T07:53:21.655Z,12748.00
2018-03-28T07:54:21.602Z,13508.00
2018-03-28T07:55:21.619Z,13836.00
2018-03-28T07:56:21.511Z,14124.00
2018-03-28T07:57:21.523Z,14500.00
2018-03-28T07:58:21.456Z,14884.00
2018-03-28T07:59:21.455Z,14864.00
2018-03-28T08:00:21.342Z,14624.00
2018-03-28T08:01:21.340Z,14840.00
2018-03-28T08:02:21.299Z,14852.00
2018-03-28T08:03:21.304Z,14540.00
2018-03-28T08:04:21.211Z,13924.00
2018-03-28T08:05:21.252Z,12872.00
2018-03-28T08:06:21.126Z,12248.00
2018-03-28T08:07:21.129Z,12640.00
2018-03-28T08:08:21.033Z,14040.00
2018-03-28T08:09:21.033Z,16500.00
2018-03-28T08:10:20.965Z,19360.00
2018-03-28T08:11:20.946Z,20864.00
2018-03-28T08:12:20.929Z,20896.00
2018-03-28T08:13:20.859Z,21024.00
2018-03-28T08:14:20.819Z,21088.00
2018-03-28T08:15:20.773Z,20480.00
2018-03-28T08:16:20.725Z,20096.00
2018-03-28T08:17:20.685Z,18944.00
2018-03-28T08:18:20.676Z,16960.00
2018-03-28T08:19:20.631Z,16164.00
2018-03-28T08:20:20.603Z,16724.00
2018-03-28T08:21:20.570Z,17440.00
2018-03-28T08:22:20.526Z,17304.00
2018-03-28T08:23:20.463Z,18272.00
2018-03-28T08:24:20.455Z,19296.00
2018-03-28T08:25:20.383Z,19232.00
2018-03-28T08:26:20.370Z,18944.00
2018-03-28T08:27:20.410Z,20672.00
2018-03-28T08:28:20.287Z,24032.00
2018-03-28T08:29:20.278Z,26208.00
2018-03-28T08:30:20.191Z,25728.00
2018-03-28T08:31:20.184Z,24512.00
2018-03-28T08:32:20.136Z,22816.00
2018-03-28T08:33:20.080Z,20128.00
2018-03-28T08:34:20.038Z,18912.00
2018-03-28T08:35:20.005Z,19008.00
2018-03-28T08:36:19.998Z,18976.00
2018-03-28T08:37:19.939Z,19168.00
2018-03-28T08:38:19.926Z,20512.00
2018-03-28T08:39:19.912Z,21440.00
2018-03-28T08:40:19.819Z,21920.00
2018-03-28T08:41:19.805Z,22432.00
2018-03-28T08:42:19.755Z,21504.00
2018-03-28T08:43:19.685Z,20704.00
2018-03-28T08:44:19.707Z,20448.00
2018-03-28T08:45:19.654Z,19808.00
2018-03-28T08:46:19.588Z,19008.00
2018-03-28T08:47:19.591Z,18304.00
2018-03-28T08:48:19.538Z,18528.00
2018-03-28T08:49:19.511Z,17560.00
2018-03-28T08:50:19.444Z,16496.00
2018-03-28T08:51:19.427Z,16976.00
2018-03-28T08:52:19.388Z,19584.00
2018-03-28T08:53:19.343Z,21568.00
2018-03-28T08:54:19.294Z,21664.00
2018-03-28T08:55:19.239Z,20448.00
2018-03-28T08:56:19.235Z,19360.00
2018-03-28T08:57:19.196Z,18304.00
2018-03-28T08:58:19.161Z,17644.00
2018-03-28T08:59:19.110Z,18592.00
2018-03-28T09:00:19.832Z,20832.00
2018-03-28T09:01:19.047Z,21440.00
2018-03-28T09:02:18.985Z,20768.00
2018-03-28T09:03:18.944Z,19712.00
2018-03-28T09:04:18.917Z,18880.00
2018-03-28T09:05:18.880Z,18144.00
2018-03-28T09:06:18.873Z,18752.00
2018-03-28T09:07:18.898Z,21088.00
2018-03-28T09:08:18.839Z,22528.00
2018-03-28T09:09:18.813Z,22784.00
2018-03-28T09:10:18.732Z,23456.00
2018-03-28T09:11:18.678Z,24096.00
2018-03-28T09:12:18.636Z,24000.00
2018-03-28T09:13:18.595Z,23744.00
2018-03-28T09:14:18.570Z,24640.00
2018-03-28T09:15:18.533Z,25792.00
2018-03-28T09:16:18.466Z,26496.00
2018-03-28T09:17:18.456Z,27904.00
2018-03-28T09:18:18.390Z,29504.00
2018-03-28T09:19:18.375Z,30912.00
2018-03-28T09:20:18.326Z,32160.00
2018-03-28T09:21:18.349Z,33152.00
2018-03-28T09:22:18.262Z,34400.00
2018-03-28T09:23:18.198Z,35872.00
2018-03-28T09:24:18.161Z,37824.00
2018-03-28T09:25:18.128Z,38176.00
2018-03-28T09:26:18.107Z,37600.00
2018-03-28T09:27:18.087Z,36704.00
2018-03-28T09:28:18.849Z,35072.00
2018-03-28T09:29:17.996Z,33472.00
2018-03-28T09:30:18.065Z,32544.00
2018-03-28T09:31:17.921Z,31488.00
2018-03-28T09:32:17.867Z,30624.00
2018-03-28T09:33:18.070Z,31360.00
2018-03-28T09:34:17.823Z,32064.00
2018-03-28T09:35:17.819Z,33888.00
2018-03-28T09:36:17.754Z,37440.00
2018-03-28T09:37:17.709Z,41152.00
2018-03-28T09:38:17.688Z,43616.00
2018-03-28T09:39:17.617Z,45408.00
2018-03-28T09:40:17.602Z,45984.00
2018-03-28T09:41:17.554Z,47904.00
2018-03-28T09:42:17.622Z,40096.00
2018-03-28T09:43:17.515Z,36160.00
2018-03-28T09:44:17.458Z,32736.00
2018-03-28T09:45:17.431Z,28608.00
2018-03-28T09:46:17.440Z,23136.00
2018-03-28T09:47:17.361Z,19360.00
2018-03-28T09:48:17.325Z,16612.00
2018-03-28T09:49:17.311Z,15392.00
2018-03-28T09:50:17.262Z,14936.00
2018-03-28T09:51:17.212Z,14600.00
2018-03-28T09:52:17.171Z,14132.00
2018-03-28T09:53:17.133Z,13996.00
2018-03-28T09:54:17.087Z,14412.00
2018-03-28T09:55:17.076Z,14712.00
2018-03-28T09:56:17.005Z,14520.00
2018-03-28T09:57:17.017Z,14908.00
2018-03-28T09:58:16.959Z,15880.00
2018-03-28T09:59:17.026Z,16016.00
2018-03-28T10:00:16.905Z,16076.00
2018-03-28T10:01:16.835Z,17164.00
2018-03-28T10:02:16.823Z,19104.00
2018-03-28T10:03:16.812Z,20320.00
2018-03-28T10:04:16.737Z,20576.00
2018-03-28T10:05:16.739Z,20800.00
2018-03-28T10:06:16.788Z,20832.00
2018-03-28T10:07:16.621Z,20544.00
2018-03-28T10:08:16.590Z,20000.00
2018-03-28T10:09:16.584Z,19744.00
2018-03-28T10:10:17.348Z,20384.00
2018-03-28T10:11:16.509Z,21984.00
2018-03-28T10:12:16.424Z,23680.00
2018-03-28T10:13:16.412Z,24384.00
2018-03-28T10:14:16.357Z,23328.00
2018-03-28T10:15:16.339Z,22336.00
2018-03-28T10:16:16.298Z,21120.00
2018-03-28T10:17:16.285Z,19488.00
2018-03-28T10:18:16.232Z,18240.00
2018-03-28T10:19:16.157Z,17320.00
2018-03-28T10:20:16.119Z,16884.00
2018-03-28T10:21:16.090Z,16260.00
2018-03-28T10:22:16.079Z,15432.00
2018-03-28T10:23:16.059Z,14988.00
2018-03-28T10:24:15.981Z,15144.00
2018-03-28T10:25:15.977Z,15664.00
2018-03-28T10:26:15.925Z,16552.00
2018-03-28T10:27:16.851Z,18048.00
2018-03-28T10:28:15.861Z,19584.00
2018-03-28T10:29:15.828Z,20672.00
2018-03-28T10:30:15.776Z,21312.00
2018-03-28T10:31:15.730Z,22656.00
2018-03-28T10:32:15.724Z,25248.00
2018-03-28T10:33:15.667Z,28960.00
2018-03-28T10:34:15.630Z,32000.00
2018-03-28T10:35:15.568Z,33344.00
2018-03-28T10:36:15.538Z,31584.00
2018-03-28T10:37:15.534Z,29600.00
2018-03-28T10:38:15.462Z,27456.00
2018-03-28T10:39:15.448Z,25920.00
2018-03-28T10:40:15.382Z,26336.00
2018-03-28T10:41:15.384Z,28448.00
2018-03-28T10:42:15.314Z,30272.00
2018-03-28T10:43:15.286Z,32352.00
2018-03-28T10:44:15.241Z,35328.00
2018-03-28T10:45:15.216Z,38688.00
2018-03-28T10:46:15.161Z,41888.00
2018-03-28T10:47:15.138Z,44128.00
2018-03-28T10:48:15.089Z,44384.00
2018-03-28T10:49:15.050Z,41920.00
2018-03-28T10:50:15.023Z,39776.00
2018-03-28T10:51:14.982Z,39104.00
2018-03-28T10:52:14.943Z,37984.00
2018-03-28T10:53:14.893Z,34432.00
2018-03-28T10:54:14.862Z,30720.00
2018-03-28T10:55:14.838Z,29632.00
2018-03-28T10:56:14.805Z,30720.00
2018-03-28T10:57:14.773Z,33120.00
2018-03-28T10:58:14.747Z,37216.00
2018-03-28T10:59:14.709Z,40160.00
2018-03-28T11:00:14.657Z,41952.00
2018-03-28T11:01:14.613Z,40032.00
2018-03-28T11:02:14.613Z,39456.00
2018-03-28T11:03:14.541Z,40544.00
2018-03-28T11:04:14.501Z,41184.00
2018-03-28T11:05:14.504Z,40608.00
2018-03-28T11:06:14.469Z,38240.00
2018-03-28T11:07:14.428Z,37056.00
2018-03-28T11:08:14.398Z,38688.00
2018-03-28T11:09:14.329Z,39360.00
2018-03-28T11:10:14.310Z,38208.00
2018-03-28T11:11:14.264Z,38048.00
2018-03-28T11:12:14.219Z,38656.00
2018-03-28T11:13:14.208Z,38880.00
2018-03-28T11:14:14.183Z,39456.00
2018-03-28T11:15:14.122Z,42048.00
2018-03-28T11:16:14.081Z,44032.00
2018-03-28T11:17:14.054Z,44256.00
2018-03-28T11:18:14.001Z,43040.00
2018-03-28T11:19:14.015Z,41984.00
2018-03-28T11:20:13.946Z,41728.00
2018-03-28T11:21:13.914Z,40736.00
2018-03-28T11:22:13.883Z,39456.00
2018-03-28T11:23:13.843Z,39392.00
2018-03-28T11:24:13.805Z,39936.00
2018-03-28T11:25:13.782Z,39808.00
2018-03-28T11:26:13.739Z,39776.00
2018-03-28T11:27:13.705Z,41056.00
2018-03-28T11:28:13.664Z,43232.00
2018-03-28T11:29:13.666Z,43712.00
2018-03-28T11:30:13.602Z,44096.00
2018-03-28T11:31:13.606Z,44800.00
2018-03-28T11:32:13.586Z,45184.00
2018-03-28T11:33:13.493Z,43872.00
2018-03-28T11:34:13.482Z,40992.00
2018-03-28T11:35:13.459Z,37408.00
2018-03-28T11:36:13.411Z,32640.00
2018-03-28T11:37:13.358Z,30304.00
2018-03-28T11:38:13.341Z,30272.00
2018-03-28T11:39:13.286Z,30048.00
2018-03-28T11:40:13.242Z,29824.00
2018-03-28T11:41:13.219Z,29408.00
2018-03-28T11:42:13.187Z,27872.00
2018-03-28T11:43:13.150Z,25856.00
2018-03-28T11:44:13.118Z,24608.00
2018-03-28T11:45:13.128Z,22816.00
2018-03-28T11:46:13.063Z,20992.00
2018-03-28T11:47:13.045Z,19520.00
2018-03-28T11:48:12.981Z,18624.00
2018-03-28T11:49:12.986Z,18048.00
2018-03-28T11:50:12.900Z,18368.00
2018-03-28T11:51:12.883Z,19104.00
2018-03-28T11:52:12.848Z,19104.00
2018-03-28T11:53:12.822Z,18560.00
2018-03-28T11:54:12.790Z,17684.00
2018-03-28T11:55:12.740Z,17256.00
2018-03-28T11:56:12.704Z,16788.00
2018-03-28T11:57:12.678Z,15504.00
2018-03-28T11:58:12.669Z,14084.00
2018-03-28T11:59:12.588Z,13676.00
2018-03-28T12:00:12.581Z,14484.00
2018-03-28T12:01:12.545Z,14788.00
2018-03-28T12:02:12.511Z,14756.00
2018-03-28T12:03:12.462Z,14712.00
2018-03-28T12:04:12.485Z,14548.00
2018-03-28T12:05:12.396Z,15080.00
2018-03-28T12:06:12.878Z,15456.00
2018-03-28T12:07:12.327Z,14756.00
2018-03-28T12:08:12.285Z,14040.00
2018-03-28T12:09:12.229Z,13472.00
2018-03-28T12:10:12.242Z,12884.00
2018-03-28T12:11:12.323Z,12716.00
2018-03-28T12:12:12.142Z,12776.00
2018-03-28T12:13:12.096Z,12536.00
2018-03-28T12:14:12.064Z,11580.00
2018-03-28T12:15:12.065Z,10404.00
2018-03-28T12:16:12.022Z,9584.00
2018-03-28T12:17:11.981Z,9240.00
2018-03-28T12:18:11.920Z,9368.00
2018-03-28T12:19:11.914Z,9752.00
2018-03-28T12:20:11.846Z,10164.00
2018-03-28T12:21:11.849Z,11072.00
2018-03-28T12:22:11.801Z,12896.00
2018-03-28T12:23:11.768Z,14808.00